createdAt,value
2019-03-08T00:02:25.115Z,98629.95
2019-03-08T00:04:51.009Z,98617.68
2019-03-08T00:07:16.793Z,98630.28
2019-03-08T00:09:42.593Z,98633.12
2019-03-08T00:12:10.173Z,98629.13
2019-03-08T00:14:36.138Z,98631.28
2019-03-08T00:17:03.965Z,98633.52
2019-03-08T00:19:30.141Z,98633.16
2019-03-08T00:21:55.931Z,98632.86
2019-03-08T00:24:21.731Z,98629.45
2019-03-08T00:26:47.529Z,98632.80
2019-03-08T00:29:13.315Z,98637.77
2019-03-08T00:31:39.092Z,98631.08
2019-03-08T00:34:04.886Z,98631.19
2019-03-08T00:36:30.660Z,98631.42
2019-03-08T00:38:56.466Z,98628.07
2019-03-08T00:41:22.250Z,98632.70
2019-03-08T00:43:48.055Z,98628.37
2019-03-08T00:46:13.836Z,98636.48
2019-03-08T00:48:40.037Z,98628.51
2019-03-08T00:51:05.822Z,98628.51
2019-03-08T00:53:31.615Z,98622.05
2019-03-08T00:55:57.396Z,98613.10
2019-03-08T00:58:23.197Z,98617.05
2019-03-08T01:00:48.982Z,98614.00
2019-03-08T01:03:14.772Z,98621.14
2019-03-08T01:05:40.559Z,98623.52
2019-03-08T01:08:06.654Z,98612.80
2019-03-08T01:10:32.543Z,98616.68
2019-03-08T01:12:58.324Z,98610.29
2019-03-08T01:15:24.225Z,98615.25
2019-03-08T01:17:50.001Z,98614.75
2019-03-08T01:20:17.203Z,98611.47
2019-03-08T01:22:42.989Z,98603.87
2019-03-08T01:25:09.569Z,98618.97
2019-03-08T01:27:35.460Z,98593.95
2019-03-08T01:30:01.534Z,98599.31
2019-03-08T01:32:27.367Z,98596.13
2019-03-08T01:34:53.140Z,98589.50
2019-03-08T01:37:20.473Z,98586.69
2019-03-08T01:39:46.423Z,98592.63
2019-03-08T01:42:12.206Z,98589.94
2019-03-08T01:44:38.196Z,98583.84
2019-03-08T01:47:03.984Z,98589.07
2019-03-08T01:49:29.755Z,98598.81
2019-03-08T01:51:55.554Z,98593.22
2019-03-08T01:54:21.334Z,98594.62
2019-03-08T01:56:47.143Z,98598.75
2019-03-08T01:59:12.930Z,98596.80
2019-03-08T02:01:38.940Z,98586.83
2019-03-08T02:04:05.011Z,98602.30
2019-03-08T02:06:30.803Z,98590.91
2019-03-08T02:08:56.579Z,98597.17
2019-03-08T02:11:22.376Z,98597.01
2019-03-08T02:13:48.149Z,98590.31
2019-03-08T02:16:13.941Z,98587.94
2019-03-08T02:18:39.711Z,98597.24
2019-03-08T02:21:06.977Z,98582.58
2019-03-08T02:23:33.185Z,98585.92
2019-03-08T02:25:58.971Z,98590.61
2019-03-08T02:28:24.765Z,98586.06
2019-03-08T02:30:50.539Z,98585.63
2019-03-08T02:33:16.327Z,98578.02
2019-03-08T02:35:42.097Z,98586.36
2019-03-08T02:38:07.887Z,98592.02
2019-03-08T02:40:35.364Z,98594.86
2019-03-08T02:43:09.199Z,98583.37
2019-03-08T02:45:34.981Z,98582.20
2019-03-08T02:48:00.762Z,98592.75
2019-03-08T02:50:26.532Z,98583.00
2019-03-08T02:52:52.316Z,98585.61
2019-03-08T02:55:18.213Z,98571.56
2019-03-08T02:57:44.308Z,98586.48
2019-03-08T03:00:12.382Z,98575.51
2019-03-08T03:02:38.172Z,98578.76
2019-03-08T03:05:05.149Z,98581.13
2019-03-08T03:07:30.988Z,98590.44
2019-03-08T03:09:56.767Z,98588.23
2019-03-08T03:12:22.551Z,98586.36
2019-03-08T03:14:48.343Z,98592.02
2019-03-08T03:17:14.138Z,98594.69
2019-03-08T03:19:39.922Z,98606.91
2019-03-08T03:22:05.703Z,98607.84
2019-03-08T03:24:31.503Z,98603.20
2019-03-08T03:26:57.287Z,98614.18
2019-03-08T03:29:23.075Z,98624.99
2019-03-08T03:31:48.861Z,98627.44
2019-03-08T03:34:14.635Z,98628.11
2019-03-08T03:36:40.403Z,98640.40
2019-03-08T03:39:06.195Z,98637.59
2019-03-08T03:41:31.972Z,98649.94
2019-03-08T03:43:57.773Z,98642.41
2019-03-08T03:46:23.594Z,98646.80
2019-03-08T03:48:49.371Z,98654.94
2019-03-08T03:51:15.142Z,98655.00
2019-03-08T03:53:40.929Z,98664.52
2019-03-08T03:56:06.703Z,98664.61
2019-03-08T03:58:32.474Z,98664.08
2019-03-08T04:00:58.366Z,98666.02
2019-03-08T04:03:24.139Z,98664.15
2019-03-08T04:05:49.930Z,98674.97
2019-03-08T04:08:15.700Z,98678.52
2019-03-08T04:10:41.486Z,98679.95
2019-03-08T04:13:07.266Z,98687.16
2019-03-08T04:15:33.053Z,98685.52
2019-03-08T04:17:58.835Z,98684.78
2019-03-08T04:20:24.635Z,98687.53
2019-03-08T04:22:50.414Z,98686.66
2019-03-08T04:25:16.222Z,98695.20
2019-03-08T04:27:41.993Z,98696.84
2019-03-08T04:30:13.725Z,98703.11
2019-03-08T04:32:39.502Z,98701.47
2019-03-08T04:35:05.290Z,98704.08
2019-03-08T04:37:31.061Z,98711.75
2019-03-08T04:39:56.850Z,98717.25
2019-03-08T04:42:22.630Z,98720.53
2019-03-08T04:44:48.431Z,98728.80
2019-03-08T04:47:14.203Z,98723.91
2019-03-08T04:49:39.995Z,98726.73
2019-03-08T04:52:05.867Z,98733.76
2019-03-08T04:54:31.648Z,98740.12
2019-03-08T04:56:57.427Z,98744.31
2019-03-08T04:59:23.216Z,98742.07
2019-03-08T05:01:49.003Z,98740.03
2019-03-08T05:04:14.778Z,98742.20
2019-03-08T05:06:40.563Z,98743.31
2019-03-08T05:09:06.842Z,98746.53
2019-03-08T05:11:32.631Z,98754.87
2019-03-08T05:13:58.407Z,98748.80
2019-03-08T05:16:24.199Z,98752.69
2019-03-08T05:18:49.976Z,98744.58
2019-03-08T05:21:15.763Z,98751.05
2019-03-08T05:23:41.538Z,98752.92
2019-03-08T05:26:07.338Z,98759.63
2019-03-08T05:28:33.126Z,98762.73
2019-03-08T05:30:58.921Z,98773.22
2019-03-08T05:33:24.702Z,98771.35
2019-03-08T05:35:50.512Z,98771.16
2019-03-08T05:38:16.282Z,98782.70
2019-03-08T05:40:42.057Z,98789.28
2019-03-08T05:43:07.843Z,98795.17
2019-03-08T05:45:33.619Z,98797.73
2019-03-08T05:47:59.402Z,98811.33
2019-03-08T05:50:25.282Z,98817.66
2019-03-08T05:52:51.067Z,98824.25
2019-03-08T05:55:16.854Z,98843.82
2019-03-08T05:57:42.641Z,98844.25
2019-03-08T06:00:15.068Z,98853.59
2019-03-08T06:02:40.862Z,98879.17
2019-03-08T06:05:06.730Z,98888.21
2019-03-08T06:07:32.819Z,98890.01
2019-03-08T06:09:58.590Z,98894.78
2019-03-08T06:12:24.379Z,98923.58
2019-03-08T06:14:50.155Z,98927.43
2019-03-08T06:17:15.939Z,98950.41
2019-03-08T06:19:41.726Z,98954.31
2019-03-08T06:22:07.536Z,98954.31
2019-03-08T06:24:33.305Z,98962.56
2019-03-08T06:26:59.099Z,98976.17
2019-03-08T06:29:25.291Z,98986.44
2019-03-08T06:31:51.063Z,99003.22
2019-03-08T06:34:16.853Z,99016.34
2019-03-08T06:36:42.626Z,99030.75
2019-03-08T06:39:08.443Z,99053.91
2019-03-08T06:41:34.191Z,99060.52
2019-03-08T06:43:59.989Z,99071.23
2019-03-08T06:46:25.769Z,99093.36
2019-03-08T06:48:51.865Z,99095.63
2019-03-08T06:51:17.635Z,99110.64
2019-03-08T06:53:43.424Z,99125.98
2019-03-08T06:56:09.200Z,99139.36
2019-03-08T06:58:36.899Z,99151.21
2019-03-08T07:01:04.582Z,99155.23
2019-03-08T07:03:30.374Z,99170.44
2019-03-08T07:05:56.155Z,99183.03
2019-03-08T07:08:22.151Z,99216.80
2019-03-08T07:10:47.923Z,99211.22
2019-03-08T07:13:13.732Z,99224.98
2019-03-08T07:15:39.511Z,99236.92
2019-03-08T07:18:12.217Z,99235.28
2019-03-08T07:20:34.905Z,99254.77
2019-03-08T07:23:27.575Z,99266.19
2019-03-08T07:25:52.574Z,99279.17
2019-03-08T07:28:30.574Z,99289.48
2019-03-08T07:31:10.374Z,99296.59
2019-03-08T07:33:53.170Z,99309.16
2019-03-08T07:36:28.501Z,99334.09
2019-03-08T07:39:12.646Z,99337.59
2019-03-08T07:41:40.302Z,99358.27
2019-03-08T07:44:08.000Z,99369.22
2019-03-08T07:46:52.275Z,99384.65
2019-03-08T07:49:25.755Z,99404.13
2019-03-08T07:51:56.287Z,99424.63
2019-03-08T07:54:30.070Z,99421.50
2019-03-08T07:57:00.537Z,99439.61
2019-03-08T07:59:33.762Z,99448.52
2019-03-08T08:02:01.442Z,99461.58
2019-03-08T08:04:31.905Z,99471.91
2019-03-08T08:07:02.355Z,99483.11
2019-03-08T08:09:30.041Z,99502.45
2019-03-08T08:12:03.537Z,99510.03
2019-03-08T08:14:39.586Z,99514.36
2019-03-08T08:17:12.294Z,99532.09
2019-03-08T08:19:46.055Z,99532.38
2019-03-08T08:22:16.527Z,99540.10
2019-03-08T08:24:44.207Z,99556.17
2019-03-08T08:27:24.436Z,99552.55
2019-03-08T08:29:52.120Z,99570.56
2019-03-08T08:32:36.382Z,99579.80
2019-03-08T08:35:07.069Z,99584.98
2019-03-08T08:37:37.291Z,99598.95
2019-03-08T08:40:08.179Z,99614.33
2019-03-08T08:42:35.871Z,99611.95
2019-03-08T08:45:12.502Z,99618.48
2019-03-08T08:47:56.545Z,99619.83
2019-03-08T08:50:24.233Z,99648.11
2019-03-08T08:52:51.928Z,99660.03
2019-03-08T08:55:22.634Z,99650.89
2019-03-08T08:58:08.206Z,99667.47
2019-03-08T09:00:44.483Z,99682.23
2019-03-08T09:03:12.179Z,99693.66
2019-03-08T09:05:56.407Z,99691.61
2019-03-08T09:08:24.419Z,99701.06
2019-03-08T09:10:54.902Z,99695.31
2019-03-08T09:13:39.407Z,99707.50
2019-03-08T09:16:22.277Z,99715.61
2019-03-08T09:18:55.795Z,99731.70
2019-03-08T09:21:23.497Z,99746.66
2019-03-08T09:23:51.179Z,99739.11
2019-03-08T09:26:21.814Z,99747.83
2019-03-08T09:28:58.568Z,99752.06
2019-03-08T09:31:26.252Z,99755.66
2019-03-08T09:33:53.945Z,99770.31
2019-03-08T09:36:21.627Z,99780.51
2019-03-08T09:38:49.319Z,99778.52
2019-03-08T09:41:17.006Z,99787.77
2019-03-08T09:43:44.702Z,99796.77
2019-03-08T09:46:21.313Z,99797.36
2019-03-08T09:48:51.534Z,99809.19
2019-03-08T09:51:19.216Z,99825.69
2019-03-08T09:54:02.007Z,99827.88
2019-03-08T09:56:29.674Z,99832.78
2019-03-08T09:59:00.002Z,99844.34
2019-03-08T10:01:36.746Z,99864.11
2019-03-08T10:04:04.452Z,99862.35
2019-03-08T10:06:40.953Z,99866.34
2019-03-08T10:09:25.242Z,99886.76
2019-03-08T10:12:09.682Z,99901.27
2019-03-08T10:14:40.318Z,99934.55
2019-03-08T10:17:08.003Z,99930.52
2019-03-08T10:19:35.703Z,99942.95
2019-03-08T10:22:21.596Z,99938.72
2019-03-08T10:25:05.946Z,99946.08
2019-03-08T10:27:38.408Z,99944.19
2019-03-08T10:30:24.617Z,99949.78
2019-03-08T10:33:10.247Z,99950.20
2019-03-08T10:35:40.603Z,99981.09
2019-03-08T10:38:08.283Z,99973.30
2019-03-08T10:40:35.971Z,99973.20
2019-03-08T10:43:12.417Z,99997.53
2019-03-08T10:45:42.902Z,99991.48
2019-03-08T10:48:13.393Z,99996.69
2019-03-08T10:50:44.053Z,99998.62
2019-03-08T10:53:28.465Z,100000.08
2019-03-08T10:55:58.976Z,100018.17
2019-03-08T10:58:26.665Z,100038.41
2019-03-08T11:00:56.908Z,100047.96
2019-03-08T11:03:24.596Z,100040.98
2019-03-08T11:05:54.830Z,100040.98
2019-03-08T11:08:29.560Z,100051.19
2019-03-08T11:10:52.311Z,100058.82
2019-03-08T11:13:43.318Z,100066.55
2019-03-08T11:16:09.038Z,100071.72
2019-03-08T11:18:55.258Z,100075.95
2019-03-08T11:21:31.700Z,100084.38
2019-03-08T11:24:11.276Z,100089.38
2019-03-08T11:26:47.882Z,100096.57
2019-03-08T11:29:18.455Z,100109.05
2019-03-08T11:31:46.151Z,100109.05
2019-03-08T11:34:13.837Z,100108.38
2019-03-08T11:36:44.065Z,100114.66
2019-03-08T11:39:25.863Z,100114.66
2019-03-08T11:41:59.368Z,100146.24
2019-03-08T11:44:29.854Z,100146.24
2019-03-08T11:47:15.828Z,100172.41
2019-03-08T11:50:00.347Z,100180.84
2019-03-08T11:52:33.755Z,100180.84
2019-03-08T11:55:01.450Z,100185.44
2019-03-08T11:57:29.545Z,100188.67
2019-03-08T11:59:57.233Z,100197.28
2019-03-08T12:02:38.061Z,100199.82
2019-03-08T12:05:25.220Z,100215.69
2019-03-08T12:08:01.771Z,100228.69
2019-03-08T12:10:29.479Z,100225.22
2019-03-08T12:12:57.179Z,100225.22
2019-03-08T12:15:30.659Z,100226.84
2019-03-08T12:18:01.203Z,100230.22
2019-03-08T12:20:28.893Z,100243.64
2019-03-08T12:23:08.234Z,100239.45
2019-03-08T12:25:41.444Z,100237.45
2019-03-08T12:28:11.963Z,100254.61
2019-03-08T12:30:39.656Z,100254.34
2019-03-08T12:33:19.133Z,100254.34
2019-03-08T12:35:49.376Z,100270.21
2019-03-08T12:38:22.783Z,100268.19
2019-03-08T12:41:02.556Z,100281.01
2019-03-08T12:43:46.802Z,100281.01
2019-03-08T12:46:14.492Z,100282.67
2019-03-08T12:49:00.406Z,100292.75
2019-03-08T12:51:28.108Z,100306.08
2019-03-08T12:53:55.798Z,100306.88
2019-03-08T12:56:29.125Z,100306.88
2019-03-08T12:59:11.678Z,100312.15
2019-03-08T13:01:45.270Z,100306.81
2019-03-08T13:04:12.974Z,100318.45
2019-03-08T13:06:40.671Z,100318.45
2019-03-08T13:09:20.203Z,100328.84
2019-03-08T13:11:45.984Z,100328.84
2019-03-08T13:14:11.778Z,100329.48
2019-03-08T13:16:38.379Z,100343.05
2019-03-08T13:19:04.173Z,100336.78
2019-03-08T13:21:29.949Z,100350.94
2019-03-08T13:23:55.751Z,100351.38
2019-03-08T13:26:21.637Z,100348.67
2019-03-08T13:28:47.427Z,100358.17
2019-03-08T13:31:13.216Z,100362.69
2019-03-08T13:33:39.012Z,100374.52
2019-03-08T13:36:04.792Z,100375.98
2019-03-08T13:38:30.582Z,100376.47
2019-03-08T13:40:56.373Z,100383.22
2019-03-08T13:43:22.207Z,100390.44
2019-03-08T13:45:47.987Z,100390.44
2019-03-08T13:48:13.767Z,100395.67
2019-03-08T13:50:39.556Z,100398.31
2019-03-08T13:53:05.341Z,100402.23
2019-03-08T13:55:31.147Z,100401.52
2019-03-08T13:57:56.919Z,100413.16
2019-03-08T14:00:22.740Z,100410.48
2019-03-08T14:02:48.518Z,100415.52
2019-03-08T14:05:14.410Z,100420.01
2019-03-08T14:07:40.207Z,100428.59
2019-03-08T14:10:17.719Z,100428.59
2019-03-08T14:12:43.508Z,100428.15
2019-03-08T14:15:16.494Z,100440.37
2019-03-08T14:17:42.283Z,100448.06
2019-03-08T14:20:15.144Z,100453.33
2019-03-08T14:22:40.959Z,100456.31
2019-03-08T14:25:06.738Z,100466.17
2019-03-08T14:27:32.532Z,100479.63
2019-03-08T14:29:59.197Z,100478.70
2019-03-08T14:32:26.895Z,100495.73
2019-03-08T14:34:53.574Z,100497.08
2019-03-08T14:37:20.690Z,100491.72
2019-03-08T14:39:46.600Z,100497.34
2019-03-08T14:42:16.822Z,100487.59
2019-03-08T14:44:50.422Z,100495.31
2019-03-08T14:47:20.873Z,100495.84
2019-03-08T14:49:46.950Z,100496.34
2019-03-08T14:52:12.735Z,100503.39
2019-03-08T14:54:42.285Z,100510.55
2019-03-08T14:57:09.226Z,100516.36
2019-03-08T14:59:33.923Z,100511.91
2019-03-08T15:01:59.715Z,100527.55
2019-03-08T15:04:25.491Z,100537.52
2019-03-08T15:06:53.190Z,100533.02
2019-03-08T15:09:18.977Z,100533.80
2019-03-08T15:11:44.774Z,100530.45
2019-03-08T15:14:10.531Z,100531.89
2019-03-08T15:16:39.207Z,100522.95
2019-03-08T15:19:04.954Z,100522.95
2019-03-08T15:21:33.253Z,100542.98
2019-03-08T15:23:58.518Z,100540.78
2019-03-08T15:26:24.296Z,100536.27
2019-03-08T15:28:50.087Z,100541.05
2019-03-08T15:31:15.868Z,100557.33
2019-03-08T15:33:41.650Z,100557.44
2019-03-08T15:36:07.428Z,100559.63
2019-03-08T15:38:33.211Z,100569.56
2019-03-08T15:40:58.990Z,100571.52
2019-03-08T15:43:24.778Z,100572.86
2019-03-08T15:45:50.574Z,100575.62
2019-03-08T15:48:16.360Z,100573.54
2019-03-08T15:50:42.838Z,100563.30
2019-03-08T15:53:09.848Z,100571.63
2019-03-08T15:55:35.626Z,100573.77
2019-03-08T15:58:01.417Z,100581.31
2019-03-08T16:00:27.198Z,100592.05
2019-03-08T16:02:54.610Z,100591.41
2019-03-08T16:05:24.006Z,100598.85
2019-03-08T16:07:48.349Z,100609.56
2019-03-08T16:10:15.340Z,100611.36
2019-03-08T16:12:41.318Z,100603.86
2019-03-08T16:15:08.809Z,100607.17
2019-03-08T16:17:36.605Z,100607.14
2019-03-08T16:20:04.796Z,100596.47
2019-03-08T16:22:30.581Z,100600.77
2019-03-08T16:24:56.365Z,100596.61
2019-03-08T16:27:22.444Z,100602.70
2019-03-08T16:29:48.235Z,100604.25
2019-03-08T16:32:21.810Z,100610.77
2019-03-08T16:34:48.873Z,100613.30
2019-03-08T16:37:19.632Z,100623.52
2019-03-08T16:40:02.291Z,100620.35
2019-03-08T16:42:32.975Z,100624.23
2019-03-08T16:45:03.164Z,100628.59
2019-03-08T16:47:33.656Z,100625.39
2019-03-08T16:50:04.225Z,100625.39
2019-03-08T16:52:31.908Z,100628.78
2019-03-08T16:55:06.055Z,100631.48
2019-03-08T16:57:51.606Z,100633.49
2019-03-08T17:00:27.979Z,100634.64
2019-03-08T17:03:04.214Z,100631.48
2019-03-08T17:05:37.694Z,100633.19
2019-03-08T17:08:08.174Z,100640.38
2019-03-08T17:10:35.868Z,100627.98
2019-03-08T17:13:12.400Z,100636.17
2019-03-08T17:15:48.936Z,100629.14
2019-03-08T17:18:34.684Z,100626.62
2019-03-08T17:21:11.259Z,100630.67
2019-03-08T17:23:47.941Z,100628.00
2019-03-08T17:26:33.956Z,100630.34
2019-03-08T17:29:13.664Z,100636.91
2019-03-08T17:31:47.633Z,100640.25
2019-03-08T17:34:15.516Z,100643.27
2019-03-08T17:36:49.057Z,100651.13
2019-03-08T17:39:28.735Z,100650.78
2019-03-08T17:41:56.436Z,100648.44
2019-03-08T17:44:36.329Z,100642.56
2019-03-08T17:47:16.171Z,100653.62
2019-03-08T17:49:43.852Z,100651.80
2019-03-08T17:52:11.551Z,100642.41
2019-03-08T17:54:45.307Z,100648.78
2019-03-08T17:57:13.002Z,100649.30
2019-03-08T17:59:57.116Z,100647.81
2019-03-08T18:02:24.809Z,100641.48
2019-03-08T18:05:04.298Z,100640.84
2019-03-08T18:07:32.013Z,100639.48
2019-03-08T18:10:05.479Z,100634.49
2019-03-08T18:12:33.166Z,100631.98
2019-03-08T18:15:03.932Z,100636.83
2019-03-08T18:17:37.363Z,100631.16
2019-03-08T18:20:24.387Z,100633.50
2019-03-08T18:22:52.085Z,100636.36
2019-03-08T18:25:25.744Z,100638.87
2019-03-08T18:27:59.367Z,100643.55
2019-03-08T18:30:32.879Z,100645.39
2019-03-08T18:33:09.143Z,100646.39
2019-03-08T18:35:39.359Z,100648.23
2019-03-08T18:38:10.081Z,100649.25
2019-03-08T18:40:52.862Z,100646.90
2019-03-08T18:43:37.431Z,100651.58
2019-03-08T18:46:21.709Z,100646.39
2019-03-08T18:49:01.359Z,100636.53
2019-03-08T18:51:45.490Z,100640.36
2019-03-08T18:54:13.197Z,100647.23
2019-03-08T18:56:57.515Z,100644.53
2019-03-08T18:59:25.213Z,100646.89
2019-03-08T19:02:09.325Z,100648.05
2019-03-08T19:04:49.123Z,100643.55
2019-03-08T19:07:19.802Z,100645.70
2019-03-08T19:09:47.495Z,100638.84
2019-03-08T19:12:17.812Z,100642.22
2019-03-08T19:14:48.039Z,100640.70
2019-03-08T19:17:16.047Z,100637.19
2019-03-08T19:19:43.757Z,100639.86
2019-03-08T19:22:26.455Z,100628.16
2019-03-08T19:24:55.474Z,100626.97
2019-03-08T19:27:40.001Z,100619.63
2019-03-08T19:30:25.306Z,100614.43
2019-03-08T19:33:09.702Z,100616.44
2019-03-08T19:35:55.640Z,100616.11
2019-03-08T19:38:23.319Z,100626.16
2019-03-08T19:40:53.934Z,100624.30
2019-03-08T19:43:27.413Z,100624.81
2019-03-08T19:46:13.223Z,100619.45
2019-03-08T19:48:57.515Z,100622.28
2019-03-08T19:51:37.319Z,100609.58
2019-03-08T19:54:20.430Z,100616.75
2019-03-08T19:56:50.894Z,100614.27
2019-03-08T19:59:18.604Z,100620.77
2019-03-08T20:01:51.848Z,100611.41
2019-03-08T20:04:19.535Z,100610.39
2019-03-08T20:07:03.859Z,100601.70
2019-03-08T20:09:31.593Z,100599.02
2019-03-08T20:12:04.859Z,100587.64
2019-03-08T20:14:47.682Z,100587.15
2019-03-08T20:17:18.331Z,100586.81
2019-03-08T20:19:54.923Z,100580.64
2019-03-08T20:22:39.178Z,100581.81
2019-03-08T20:25:08.560Z,100581.64
2019-03-08T20:27:42.450Z,100575.61
2019-03-08T20:30:18.138Z,100563.09
2019-03-08T20:32:46.040Z,100568.08
2019-03-08T20:35:19.674Z,100561.06
2019-03-08T20:37:47.494Z,100554.89
2019-03-08T20:40:21.288Z,100551.22
2019-03-08T20:43:01.138Z,100551.55
2019-03-08T20:45:29.144Z,100554.23
2019-03-08T20:47:55.120Z,100548.02
2019-03-08T20:50:21.210Z,100540.84
2019-03-08T20:52:47.252Z,100535.31
2019-03-08T20:55:13.195Z,100545.86
2019-03-08T20:57:39.329Z,100539.84
2019-03-08T21:00:09.084Z,100536.64
2019-03-08T21:02:35.035Z,100540.17
2019-03-08T21:05:00.819Z,100525.94
2019-03-08T21:07:26.619Z,100523.77
2019-03-08T21:09:52.568Z,100519.25
2019-03-08T21:12:18.572Z,100529.97
2019-03-08T21:14:44.572Z,100522.45
2019-03-08T21:17:10.333Z,100512.89
2019-03-08T21:19:36.439Z,100516.23
2019-03-08T21:22:02.420Z,100517.91
2019-03-08T21:24:28.208Z,100511.39
2019-03-08T21:26:54.020Z,100499.54
2019-03-08T21:29:19.791Z,100490.66
2019-03-08T21:31:45.983Z,100497.03
2019-03-08T21:34:11.914Z,100488.99
2019-03-08T21:36:37.871Z,100488.30
2019-03-08T21:39:04.452Z,100492.98
2019-03-08T21:41:30.337Z,100495.34
2019-03-08T21:43:56.127Z,100489.48
2019-03-08T21:46:21.906Z,100488.31
2019-03-08T21:48:47.752Z,100485.16
2019-03-08T21:51:13.507Z,100476.78
2019-03-08T21:53:39.433Z,100476.27
2019-03-08T21:56:05.632Z,100471.62
2019-03-08T21:58:31.791Z,100473.45
2019-03-08T22:00:57.571Z,100472.27
2019-03-08T22:03:23.557Z,100461.07
2019-03-08T22:05:49.501Z,100461.07
2019-03-08T22:08:17.837Z,100457.41
2019-03-08T22:10:44.887Z,100456.07
2019-03-08T22:13:10.683Z,100457.89
2019-03-08T22:15:38.715Z,100450.73
2019-03-08T22:18:08.674Z,100447.22
2019-03-08T22:20:34.762Z,100444.19
2019-03-08T22:23:00.556Z,100439.37
2019-03-08T22:25:26.337Z,100434.18
2019-03-08T22:27:52.322Z,100422.80
2019-03-08T22:30:19.413Z,100424.14
2019-03-08T22:32:45.202Z,100413.78
2019-03-08T22:35:11.445Z,100409.44
2019-03-08T22:37:37.771Z,100403.41
2019-03-08T22:40:05.087Z,100402.08
2019-03-08T22:42:31.291Z,100394.24
2019-03-08T22:44:57.107Z,100391.23
2019-03-08T22:47:23.185Z,100382.71
2019-03-08T22:49:48.973Z,100372.17
2019-03-08T22:52:14.747Z,100374.17
2019-03-08T22:54:40.550Z,100365.64
2019-03-08T22:57:06.933Z,100356.46
2019-03-08T22:59:33.070Z,100355.95
2019-03-08T23:02:05.100Z,100346.95
2019-03-08T23:04:31.270Z,100337.77
2019-03-08T23:06:57.068Z,100334.58
2019-03-08T23:09:23.557Z,100331.57
2019-03-08T23:11:49.647Z,100334.25
2019-03-08T23:14:15.429Z,100332.58
2019-03-08T23:16:41.211Z,100326.87
2019-03-08T23:19:07.020Z,100322.86
2019-03-08T23:21:32.803Z,100318.52
2019-03-08T23:23:58.596Z,100314.66
2019-03-08T23:26:24.423Z,100306.96
2019-03-08T23:28:57.914Z,100297.42
2019-03-08T23:31:25.600Z,100296.41
2019-03-08T23:33:51.421Z,100293.07
2019-03-08T23:36:17.197Z,100286.08
2019-03-08T23:38:42.984Z,100285.57
2019-03-08T23:41:08.773Z,100279.55
2019-03-08T23:43:34.755Z,100277.87
2019-03-08T23:46:00.549Z,100273.86
2019-03-08T23:48:26.327Z,100270.14
2019-03-08T23:50:52.122Z,100265.31
2019-03-08T23:53:17.899Z,100267.80
2019-03-08T23:55:43.702Z,100254.91
2019-03-08T23:58:09.484Z,100249.88
